Time;durP1;ratioP1;P1;durP2;ratioP2;P2;SDS_P1;SDS_P2;PMS_P1;PMS_P2;Temp;Humidity;BMP_temperature;BMP_pressure;BME280_temperature;BME280_humidity;BME280_pressure;Samples;Min_cycle;Max_cycle;Signal;HPM_P1;HPM_P2
2021/06/12 00:01:54;;;;;;;14.93;13.43;;;;;;;;;;4438885;32;20030;-77
2021/06/12 00:04:20;;;;;;;13.75;12.45;;;;;;;;;;4435430;32;20484;-77
2021/06/12 00:06:46;;;;;;;12.90;11.60;;;;;;;;;;4439453;32;20053;-76
2021/06/12 00:09:12;;;;;;;13.80;12.35;;;;;;;;;;4435189;32;20399;-77
2021/06/12 00:11:38;;;;;;;18.33;12.43;;;;;;;;;;4437922;32;20053;-76
2021/06/12 00:14:05;;;;;;;18.00;11.90;;;;;;;;;;4436271;32;20057;-77
2021/06/12 00:16:31;;;;;;;13.43;11.55;;;;;;;;;;4437934;32;20087;-77
2021/06/12 00:18:57;;;;;;;13.90;12.68;;;;;;;;;;4431955;32;20450;-77
2021/06/12 00:21:24;;;;;;;12.23;11.07;;;;;;;;;;4431608;32;20037;-77
2021/06/12 00:23:50;;;;;;;13.90;12.48;;;;;;;;;;4432119;32;20073;-77
2021/06/12 00:26:16;;;;;;;14.30;12.85;;;;;;;;;;4433330;32;20041;-77
2021/06/12 00:28:42;;;;;;;13.93;12.55;;;;;;;;;;4432577;32;20100;-77
2021/06/12 00:31:08;;;;;;;14.00;12.70;;;;;;;;;;4415860;32;20050;-77
2021/06/12 00:33:35;;;;;;;18.80;13.85;;;;;;;;;;4428659;32;20785;-77
2021/06/12 00:36:01;;;;;;;18.83;14.07;;;;;;;;;;4427868;32;20067;-77
2021/06/12 00:38:27;;;;;;;17.25;14.45;;;;;;;;;;4427370;32;20550;-76
2021/06/12 00:40:53;;;;;;;17.80;14.77;;;;;;;;;;4429154;32;20041;-77
2021/06/12 00:43:20;;;;;;;18.00;14.65;;;;;;;;;;4427630;32;20065;-77
2021/06/12 00:45:46;;;;;;;16.77;13.98;;;;;;;;;;4429448;32;20090;-77
2021/06/12 00:48:12;;;;;;;16.12;14.50;;;;;;;;;;4428503;32;20075;-77
2021/06/12 00:50:38;;;;;;;16.70;14.27;;;;;;;;;;4434728;32;20041;-77
2021/06/12 00:53:05;;;;;;;15.73;13.93;;;;;;;;;;4438436;32;20060;-77
2021/06/12 00:55:31;;;;;;;20.65;15.57;;;;;;;;;;4430875;32;20770;-77
2021/06/12 00:57:57;;;;;;;17.87;15.48;;;;;;;;;;4429216;32;20088;-77
2021/06/12 01:00:24;;;;;;;20.83;16.98;;;;;;;;;;4437662;32;20033;-77
2021/06/12 01:02:51;;;;;;;17.45;15.65;;;;;;;;;;4434435;32;20695;-77
2021/06/12 01:05:18;;;;;;;15.75;14.13;;;;;;;;;;4438517;32;20030;-77
2021/06/12 01:07:45;;;;;;;19.92;17.92;;;;;;;;;;4427417;32;20613;-77
2021/06/12 01:10:13;;;;;;;19.02;15.13;;;;;;;;;;4438184;32;20063;-77
2021/06/12 01:12:51;;;;;;;15.57;13.88;;;;;;;;;;4435345;32;20045;-77
2021/06/12 01:15:18;;;;;;;16.95;14.77;;;;;;;;;;4437011;32;20132;-77
2021/06/12 01:17:48;;;;;;;16.83;15.10;;;;;;;;;;4434553;32;20173;-77
2021/06/12 01:20:27;;;;;;;17.50;15.57;;;;;;;;;;4431362;32;20086;-77
2021/06/12 01:23:18;;;;;;;17.27;15.45;;;;;;;;;;4427266;32;20091;-77
2021/06/12 01:25:57;;;;;;;16.37;14.10;;;;;;;;;;4426469;32;20428;-82
2021/06/12 01:28:23;;;;;;;17.10;15.30;;;;;;;;;;4428427;32;20057;-77
2021/06/12 01:30:51;;;;;;;20.23;15.57;;;;;;;;;;4427058;32;20085;-77
2021/06/12 01:33:17;;;;;;;16.75;14.18;;;;;;;;;;4428977;32;20059;-76
2021/06/12 01:35:45;;;;;;;14.77;13.32;;;;;;;;;;4428358;32;20046;-77
2021/06/12 01:38:13;;;;;;;18.42;14.32;;;;;;;;;;4426723;32;20037;-76
2021/06/12 01:40:40;;;;;;;15.55;14.15;;;;;;;;;;4426836;32;20042;-76
2021/06/12 01:43:08;;;;;;;17.00;14.13;;;;;;;;;;4429243;32;20037;-77
2021/06/12 01:45:34;;;;;;;15.02;13.40;;;;;;;;;;4428711;32;20037;-77
2021/06/12 01:48:01;;;;;;;18.00;15.07;;;;;;;;;;4427971;32;20049;-77
2021/06/12 01:50:27;;;;;;;16.65;14.27;;;;;;;;;;4425628;32;20038;-77
2021/06/12 01:52:56;;;;;;;16.40;14.75;;;;;;;;;;4429512;32;20113;-77
2021/06/12 01:55:24;;;;;;;18.25;14.85;;;;;;;;;;4427649;32;20054;-78
2021/06/12 01:57:50;;;;;;;18.30;15.48;;;;;;;;;;4428172;32;20092;-77
2021/06/12 02:00:17;;;;;;;17.00;14.60;;;;;;;;;;4428068;32;20114;-77
2021/06/12 02:02:44;;;;;;;15.75;14.10;;;;;;;;;;4429677;32;20059;-77
2021/06/12 02:05:15;;;;;;;17.27;15.45;;;;;;;;;;4416224;32;20083;-76
2021/06/12 02:07:43;;;;;;;17.00;15.00;;;;;;;;;;4429597;32;20034;-76
2021/06/12 02:10:12;;;;;;;16.45;13.88;;;;;;;;;;4429099;32;20086;-77
2021/06/12 02:12:38;;;;;;;17.65;14.98;;;;;;;;;;4427996;32;20105;-78
2021/06/12 02:15:06;;;;;;;15.25;13.75;;;;;;;;;;4427523;32;20064;-77
2021/06/12 02:17:33;;;;;;;15.00;13.60;;;;;;;;;;4425070;32;20394;-77
2021/06/12 02:20:00;;;;;;;14.93;13.43;;;;;;;;;;4427661;32;20358;-77
2021/06/12 02:22:26;;;;;;;15.68;13.80;;;;;;;;;;4429570;32;20082;-77
2021/06/12 02:24:52;;;;;;;17.52;13.68;;;;;;;;;;4438238;32;20068;-77
2021/06/12 02:27:19;;;;;;;16.83;14.15;;;;;;;;;;4435622;32;20045;-77
2021/06/12 02:29:46;;;;;;;16.58;14.77;;;;;;;;;;4440009;32;20064;-77
2021/06/12 02:32:12;;;;;;;17.50;14.68;;;;;;;;;;4436469;32;20094;-76
2021/06/12 02:34:39;;;;;;;18.60;14.93;;;;;;;;;;4439788;32;20084;-77
2021/06/12 02:37:08;;;;;;;16.58;14.27;;;;;;;;;;4437972;32;20489;-76
2021/06/12 02:39:34;;;;;;;17.87;14.35;;;;;;;;;;4435117;32;20054;-77
2021/06/12 02:42:01;;;;;;;15.82;14.25;;;;;;;;;;4428004;32;20082;-77
2021/06/12 02:44:28;;;;;;;15.50;13.90;;;;;;;;;;4425983;32;20050;-77
2021/06/12 02:46:59;;;;;;;17.17;15.13;;;;;;;;;;4428581;32;20057;-77
2021/06/12 02:49:28;;;;;;;16.77;14.60;;;;;;;;;;4427727;32;20826;-86
2021/06/12 02:51:57;;;;;;;17.83;15.15;;;;;;;;;;4428036;32;20038;-77
2021/06/12 02:54:25;;;;;;;16.83;15.05;;;;;;;;;;4427145;32;20045;-77
2021/06/12 02:56:53;;;;;;;17.08;15.30;;;;;;;;;;4426887;32;20406;-77
2021/06/12 02:59:19;;;;;;;16.83;14.25;;;;;;;;;;4424749;32;20049;-77
2021/06/12 03:01:46;;;;;;;16.52;14.82;;;;;;;;;;4427306;32;20506;-76
2021/06/12 03:04:14;;;;;;;16.40;14.00;;;;;;;;;;4417398;32;20033;-77
2021/06/12 03:06:40;;;;;;;14.93;13.48;;;;;;;;;;4424719;32;20089;-78
2021/06/12 03:09:07;;;;;;;16.20;14.40;;;;;;;;;;4424591;32;20447;-77
2021/06/12 03:11:34;;;;;;;16.08;14.38;;;;;;;;;;4424622;32;20101;-77
2021/06/12 03:14:00;;;;;;;14.82;13.30;;;;;;;;;;4425124;32;20057;-77
2021/06/12 03:16:27;;;;;;;14.82;13.07;;;;;;;;;;4424876;32;20045;-78
2021/06/12 03:18:54;;;;;;;14.18;12.77;;;;;;;;;;4424821;32;20081;-77
2021/06/12 03:21:23;;;;;;;13.75;12.37;;;;;;;;;;4426046;32;20093;-77
2021/06/12 03:23:50;;;;;;;13.48;12.18;;;;;;;;;;4424593;32;20053;-77
2021/06/12 03:26:17;;;;;;;15.18;13.07;;;;;;;;;;4423116;32;20065;-77
2021/06/12 03:28:44;;;;;;;12.80;11.60;;;;;;;;;;4428155;32;20681;-76
2021/06/12 03:31:10;;;;;;;14.30;12.60;;;;;;;;;;4442588;32;20092;-77
2021/06/12 03:33:37;;;;;;;14.45;11.35;;;;;;;;;;4440353;32;20079;-77
2021/06/12 03:36:04;;;;;;;15.10;12.80;;;;;;;;;;4440718;32;20050;-77
2021/06/12 03:38:34;;;;;;;13.77;12.37;;;;;;;;;;4441431;32;20057;-77
2021/06/12 03:41:00;;;;;;;14.57;12.73;;;;;;;;;;4441269;32;20094;-77
2021/06/12 03:43:27;;;;;;;13.45;12.05;;;;;;;;;;4442392;32;20067;-76
2021/06/12 03:45:56;;;;;;;15.07;12.85;;;;;;;;;;4441295;32;20037;-77
2021/06/12 03:48:23;;;;;;;14.40;12.20;;;;;;;;;;4427319;32;20068;-77
2021/06/12 03:50:51;;;;;;;16.33;12.63;;;;;;;;;;4429481;32;20038;-77
2021/06/12 03:53:18;;;;;;;13.60;12.20;;;;;;;;;;4431615;32;20037;-77
2021/06/12 03:55:45;;;;;;;15.65;13.38;;;;;;;;;;4429906;32;20045;-76
2021/06/12 03:58:11;;;;;;;15.10;12.95;;;;;;;;;;4431311;32;20091;-77
2021/06/12 04:00:37;;;;;;;16.85;13.85;;;;;;;;;;4431353;32;20038;-77
2021/06/12 04:03:03;;;;;;;14.13;12.50;;;;;;;;;;4430005;32;20242;-77
2021/06/12 04:05:30;;;;;;;14.13;12.65;;;;;;;;;;4431047;32;20053;-77
2021/06/12 04:07:56;;;;;;;14.50;13.10;;;;;;;;;;4429642;32;20351;-76
2021/06/12 04:10:22;;;;;;;13.62;12.23;;;;;;;;;;4428490;32;20042;-77
2021/06/12 04:12:48;;;;;;;14.18;12.68;;;;;;;;;;4430475;32;20429;-77
2021/06/12 04:15:15;;;;;;;18.52;12.10;;;;;;;;;;4430255;32;20029;-77
2021/06/12 04:17:44;;;;;;;13.65;11.82;;;;;;;;;;4430425;32;20605;-78
2021/06/12 04:20:11;;;;;;;12.98;11.70;;;;;;;;;;4431581;32;20143;-76
2021/06/12 04:22:38;;;;;;;13.27;12.07;;;;;;;;;;4425715;32;20320;-79
2021/06/12 04:25:04;;;;;;;19.98;12.40;;;;;;;;;;4426797;32;20034;-76
2021/06/12 04:27:33;;;;;;;15.43;13.80;;;;;;;;;;4427826;32;20507;-77
2021/06/12 04:29:59;;;;;;;15.48;12.75;;;;;;;;;;4429650;32;20073;-77
2021/06/12 04:32:25;;;;;;;14.75;13.35;;;;;;;;;;4432088;32;20049;-76
2021/06/12 04:34:51;;;;;;;14.95;13.50;;;;;;;;;;4430281;32;20080;-77
2021/06/12 04:37:17;;;;;;;13.35;12.05;;;;;;;;;;4431305;32;20110;-76
2021/06/12 04:39:43;;;;;;;15.15;11.98;;;;;;;;;;4427741;32;20037;-77
2021/06/12 04:42:10;;;;;;;15.00;13.48;;;;;;;;;;4428412;32;20034;-76
2021/06/12 04:44:36;;;;;;;15.98;14.40;;;;;;;;;;4426960;32;20414;-77
2021/06/12 04:47:03;;;;;;;17.80;16.08;;;;;;;;;;4426187;32;20037;-77
2021/06/12 04:49:29;;;;;;;16.83;15.02;;;;;;;;;;4428277;32;20436;-77
2021/06/12 04:51:55;;;;;;;16.83;15.13;;;;;;;;;;4418958;32;20064;-77
2021/06/12 04:54:21;;;;;;;17.70;15.85;;;;;;;;;;4412386;32;20057;-76
2021/06/12 04:56:47;;;;;;;17.48;15.65;;;;;;;;;;4425784;32;20052;-77
2021/06/12 04:59:13;;;;;;;21.67;17.98;;;;;;;;;;4426352;32;20034;-77
2021/06/12 05:01:39;;;;;;;18.20;15.63;;;;;;;;;;4433260;32;20090;-76
2021/06/12 05:04:06;;;;;;;22.27;17.55;;;;;;;;;;4431649;32;20123;-77
2021/06/12 05:06:32;;;;;;;22.98;19.67;;;;;;;;;;4431223;32;20457;-77
2021/06/12 05:08:58;;;;;;;20.95;18.75;;;;;;;;;;4434099;32;20038;-77
2021/06/12 05:11:24;;;;;;;23.62;19.80;;;;;;;;;;4430487;32;20622;-77
2021/06/12 05:13:50;;;;;;;21.73;19.15;;;;;;;;;;4434086;32;20504;-77
2021/06/12 05:16:17;;;;;;;21.30;18.10;;;;;;;;;;4431225;32;20084;-78
2021/06/12 05:18:44;;;;;;;19.98;17.77;;;;;;;;;;4434833;32;20037;-77
2021/06/12 05:21:12;;;;;;;23.15;20.37;;;;;;;;;;4427864;32;20077;-77
2021/06/12 05:23:38;;;;;;;16.80;14.95;;;;;;;;;;4429644;32;20033;-77
2021/06/12 05:26:05;;;;;;;15.07;11.88;;;;;;;;;;4430237;32;20087;-77
2021/06/12 05:28:32;;;;;;;19.08;13.62;;;;;;;;;;4428898;32;20056;-77
2021/06/12 05:30:58;;;;;;;12.98;11.63;;;;;;;;;;4427862;32;20102;-77
2021/06/12 05:33:25;;;;;;;11.75;10.02;;;;;;;;;;4428212;32;20072;-78
2021/06/12 05:35:52;;;;;;;12.10;10.80;;;;;;;;;;4429040;32;20058;-78
2021/06/12 05:38:18;;;;;;;9.88;8.95;;;;;;;;;;4427099;32;20030;-77
2021/06/12 05:40:45;;;;;;;12.07;10.88;;;;;;;;;;4427410;32;20033;-78
2021/06/12 05:43:11;;;;;;;10.45;9.32;;;;;;;;;;4417608;32;20122;-78
2021/06/12 05:45:37;;;;;;;10.25;9.23;;;;;;;;;;4423561;32;20030;-88
2021/06/12 05:48:04;;;;;;;10.98;9.98;;;;;;;;;;4426167;32;20029;-78
2021/06/12 05:50:30;;;;;;;11.32;10.10;;;;;;;;;;4428070;32;20061;-78
2021/06/12 05:52:56;;;;;;;11.40;10.25;;;;;;;;;;4430154;32;20432;-78
2021/06/12 05:55:22;;;;;;;10.55;9.55;;;;;;;;;;4428074;32;20049;-78
2021/06/12 05:57:49;;;;;;;13.77;10.10;;;;;;;;;;4428070;32;20327;-78
2021/06/12 06:00:15;;;;;;;11.73;10.70;;;;;;;;;;4426398;32;20076;-78
2021/06/12 06:02:41;;;;;;;15.57;11.27;;;;;;;;;;4427582;32;20525;-78
2021/06/12 06:05:08;;;;;;;13.38;12.18;;;;;;;;;;4429905;32;20069;-78
2021/06/12 06:07:34;;;;;;;13.00;11.70;;;;;;;;;;4428159;32;20037;-78
2021/06/12 06:10:00;;;;;;;11.77;10.60;;;;;;;;;;4429274;32;20080;-77
2021/06/12 06:12:29;;;;;;;12.35;11.05;;;;;;;;;;4427083;32;20056;-77
2021/06/12 06:14:55;;;;;;;12.43;11.25;;;;;;;;;;4429153;32;20034;-78
2021/06/12 06:17:21;;;;;;;9.80;8.75;;;;;;;;;;4428123;32;20037;-78
2021/06/12 06:19:47;;;;;;;10.15;9.15;;;;;;;;;;4427938;32;20041;-78
2021/06/12 06:22:14;;;;;;;9.70;8.70;;;;;;;;;;4428588;32;20136;-78
2021/06/12 06:24:42;;;;;;;9.00;8.27;;;;;;;;;;4427566;32;20060;-78
2021/06/12 06:27:08;;;;;;;11.63;8.27;;;;;;;;;;4429014;32;20600;-79
2021/06/12 06:29:34;;;;;;;9.80;8.88;;;;;;;;;;4433418;32;20041;-78
2021/06/12 06:32:00;;;;;;;8.40;7.60;;;;;;;;;;4435185;32;20061;-78
2021/06/12 06:34:27;;;;;;;7.50;6.37;;;;;;;;;;4437964;32;20089;-76
2021/06/12 06:36:53;;;;;;;7.18;6.55;;;;;;;;;;4433611;32;20038;-78
2021/06/12 06:39:19;;;;;;;7.93;7.20;;;;;;;;;;4437560;32;20454;-78
2021/06/12 06:41:45;;;;;;;7.55;6.82;;;;;;;;;;4436261;32;20033;-78
2021/06/12 06:44:11;;;;;;;8.63;6.68;;;;;;;;;;4437108;32;20060;-78
2021/06/12 06:46:37;;;;;;;6.68;6.07;;;;;;;;;;4435795;32;20059;-79
2021/06/12 06:49:04;;;;;;;9.52;7.00;;;;;;;;;;4428455;32;20113;-79
2021/06/12 06:51:30;;;;;;;7.15;6.55;;;;;;;;;;4425265;32;20425;-79
2021/06/12 06:53:56;;;;;;;7.10;6.45;;;;;;;;;;4425041;32;20038;-78
2021/06/12 06:56:22;;;;;;;7.60;6.82;;;;;;;;;;4427648;32;20111;-78
2021/06/12 06:58:48;;;;;;;7.90;6.53;;;;;;;;;;4436743;32;20059;-79
2021/06/12 07:01:15;;;;;;;7.12;6.37;;;;;;;;;;4434897;32;20033;-79
2021/06/12 07:03:41;;;;;;;6.47;5.87;;;;;;;;;;4433391;32;20531;-78
2021/06/12 07:06:07;;;;;;;9.57;7.50;;;;;;;;;;4428233;32;20129;-79
2021/06/12 07:08:34;;;;;;;10.50;8.07;;;;;;;;;;4436232;32;20033;-78
2021/06/12 07:11:01;;;;;;;8.35;7.65;;;;;;;;;;4432397;32;20034;-78
2021/06/12 07:13:27;;;;;;;8.88;7.03;;;;;;;;;;4434092;32;20373;-78
2021/06/12 07:15:53;;;;;;;8.40;7.60;;;;;;;;;;4432440;32;20057;-79
2021/06/12 07:18:19;;;;;;;10.88;7.57;;;;;;;;;;4431413;32;20418;-78
2021/06/12 07:20:47;;;;;;;8.60;7.70;;;;;;;;;;4430142;32;20534;-78
2021/06/12 07:23:15;;;;;;;7.78;7.12;;;;;;;;;;4414924;32;20104;-81
2021/06/12 07:25:42;;;;;;;9.52;8.50;;;;;;;;;;4414604;32;20030;-79
2021/06/12 07:28:08;;;;;;;8.57;7.78;;;;;;;;;;4418365;32;20068;-80
2021/06/12 07:30:39;;;;;;;8.25;7.43;;;;;;;;;;4423031;32;20034;-79
2021/06/12 07:33:06;;;;;;;7.95;7.25;;;;;;;;;;4428478;32;20037;-80
2021/06/12 07:35:33;;;;;;;8.32;7.53;;;;;;;;;;4422570;32;20053;-79
2021/06/12 07:37:59;;;;;;;9.40;8.48;;;;;;;;;;4423190;32;20029;-79
2021/06/12 07:40:25;;;;;;;9.82;8.82;;;;;;;;;;4424438;32;20038;-78
2021/06/12 07:42:51;;;;;;;8.52;7.72;;;;;;;;;;4423627;32;20064;-79
2021/06/12 07:45:17;;;;;;;9.30;8.40;;;;;;;;;;4421919;32;20627;-79
2021/06/12 07:47:44;;;;;;;8.43;7.62;;;;;;;;;;4424830;32;20125;-80
2021/06/12 07:50:10;;;;;;;9.05;8.13;;;;;;;;;;4423594;32;20120;-79
2021/06/12 07:52:36;;;;;;;8.27;7.47;;;;;;;;;;4419360;32;20819;-79
2021/06/12 07:55:03;;;;;;;8.82;8.13;;;;;;;;;;4423752;32;20041;-81
2021/06/12 07:57:29;;;;;;;9.95;8.88;;;;;;;;;;4423936;32;20112;-79
2021/06/12 07:59:55;;;;;;;9.38;8.38;;;;;;;;;;4422812;32;20033;-79
2021/06/12 08:02:21;;;;;;;9.07;8.18;;;;;;;;;;4422712;32;20072;-79
2021/06/12 08:04:48;;;;;;;8.27;7.57;;;;;;;;;;4423781;32;20445;-78
2021/06/12 08:07:15;;;;;;;8.13;7.43;;;;;;;;;;4423490;32;20143;-79
2021/06/12 08:09:41;;;;;;;8.30;7.50;;;;;;;;;;4423745;32;20061;-78
2021/06/12 08:12:08;;;;;;;8.20;7.50;;;;;;;;;;4424121;32;20026;-79
2021/06/12 08:14:34;;;;;;;8.48;7.45;;;;;;;;;;4426513;32;20083;-79
2021/06/12 08:17:00;;;;;;;8.55;7.62;;;;;;;;;;4425216;32;20125;-79
2021/06/12 08:19:27;;;;;;;7.57;6.90;;;;;;;;;;4426145;32;20033;-78
2021/06/12 08:21:53;;;;;;;8.23;7.40;;;;;;;;;;4428839;32;20107;-78
2021/06/12 08:24:19;;;;;;;7.30;6.70;;;;;;;;;;4425482;32;20038;-78
2021/06/12 08:26:45;;;;;;;8.93;8.23;;;;;;;;;;4426036;32;20438;-78
2021/06/12 08:29:11;;;;;;;8.63;7.53;;;;;;;;;;4427934;32;20076;-79
2021/06/12 08:31:38;;;;;;;8.82;8.02;;;;;;;;;;4426933;32;20100;-78
2021/06/12 08:34:04;;;;;;;9.23;8.32;;;;;;;;;;4431215;32;20029;-78
2021/06/12 08:36:31;;;;;;;8.75;7.95;;;;;;;;;;4430407;32;20108;-78
2021/06/12 08:38:57;;;;;;;8.50;7.70;;;;;;;;;;4430348;32;20079;-79
2021/06/12 08:41:23;;;;;;;10.00;7.95;;;;;;;;;;4425258;32;20112;-78
2021/06/12 08:43:51;;;;;;;9.98;8.98;;;;;;;;;;4435576;32;20042;-78
2021/06/12 08:46:17;;;;;;;10.55;8.55;;;;;;;;;;4438033;32;20417;-79
2021/06/12 08:48:44;;;;;;;8.90;8.10;;;;;;;;;;4427652;32;20029;-79
2021/06/12 08:51:10;;;;;;;9.88;8.27;;;;;;;;;;4425982;32;20136;-78
2021/06/12 08:53:37;;;;;;;9.32;8.43;;;;;;;;;;4430829;32;20732;-78
2021/06/12 08:56:03;;;;;;;9.48;8.68;;;;;;;;;;4436312;32;20045;-78
2021/06/12 08:58:29;;;;;;;9.20;8.48;;;;;;;;;;4438886;32;20429;-78
2021/06/12 09:00:55;;;;;;;10.05;8.35;;;;;;;;;;4435732;32;20037;-78
2021/06/12 09:03:24;;;;;;;9.38;8.57;;;;;;;;;;4432776;32;20088;-78
2021/06/12 09:05:52;;;;;;;9.18;8.38;;;;;;;;;;4428301;32;20133;-80
2021/06/12 09:08:20;;;;;;;8.90;8.15;;;;;;;;;;4436658;32;20461;-76
2021/06/12 09:10:58;;;;;;;9.25;8.23;;;;;;;;;;4438199;32;20046;-76
2021/06/12 09:13:40;;;;;;;8.48;7.68;;;;;;;;;;4436585;32;20030;-76
2021/06/12 09:16:07;;;;;;;11.45;9.25;;;;;;;;;;4436356;32;20070;-76
2021/06/12 09:18:40;;;;;;;12.05;10.82;;;;;;;;;;4436660;32;20260;-76
2021/06/12 09:21:08;;;;;;;11.12;10.02;;;;;;;;;;4438327;32;20086;-76
2021/06/12 09:23:41;;;;;;;12.00;10.90;;;;;;;;;;4435977;32;20030;-76
2021/06/12 09:26:07;;;;;;;14.18;12.80;;;;;;;;;;4435278;32;20469;-76
2021/06/12 09:28:46;;;;;;;12.77;11.15;;;;;;;;;;4435924;32;20109;-76
2021/06/12 09:31:19;;;;;;;13.10;11.80;;;;;;;;;;4438680;32;20032;-77
2021/06/12 09:33:46;;;;;;;11.88;10.77;;;;;;;;;;4435959;32;20030;-77
2021/06/12 09:36:12;;;;;;;13.00;9.25;;;;;;;;;;4436812;32;20120;-76
2021/06/12 09:38:40;;;;;;;8.90;8.10;;;;;;;;;;4435844;32;20030;-77
2021/06/12 09:41:21;;;;;;;10.13;9.20;;;;;;;;;;4438412;32;20037;-76
2021/06/12 09:43:47;;;;;;;10.90;9.80;;;;;;;;;;4436095;32;20143;-76
2021/06/12 09:46:33;;;;;;;13.93;8.40;;;;;;;;;;4437581;32;20077;-76
2021/06/12 09:48:59;;;;;;;11.30;9.25;;;;;;;;;;4428423;32;20364;-77
2021/06/12 09:51:25;;;;;;;8.43;7.70;;;;;;;;;;4423614;32;20053;-76
2021/06/12 09:53:53;;;;;;;9.75;8.85;;;;;;;;;;4425532;32;20290;-76
2021/06/12 09:56:20;;;;;;;9.82;8.82;;;;;;;;;;4425157;32;20134;-76
2021/06/12 09:58:47;;;;;;;9.77;8.10;;;;;;;;;;4424615;32;20143;-78
2021/06/12 10:01:14;;;;;;;7.85;7.15;;;;;;;;;;4423433;32;20029;-76
2021/06/12 10:03:41;;;;;;;8.80;8.00;;;;;;;;;;4425281;32;20391;-76
2021/06/12 10:06:21;;;;;;;8.73;7.90;;;;;;;;;;4424919;32;20038;-76
2021/06/12 10:08:51;;;;;;;9.45;8.65;;;;;;;;;;4413927;32;20053;-76
2021/06/12 10:11:19;;;;;;;9.00;8.10;;;;;;;;;;4424016;32;20033;-76
2021/06/12 10:13:46;;;;;;;9.00;8.00;;;;;;;;;;4424539;32;20029;-76
2021/06/12 10:16:13;;;;;;;7.87;7.18;;;;;;;;;;4424899;32;20090;-76
2021/06/12 10:18:40;;;;;;;9.40;8.38;;;;;;;;;;4424344;32;20053;-76
2021/06/12 10:21:06;;;;;;;9.45;8.65;;;;;;;;;;4422830;32;20049;-76
2021/06/12 10:23:33;;;;;;;9.32;8.43;;;;;;;;;;4424584;32;20155;-77
2021/06/12 10:25:59;;;;;;;9.15;8.25;;;;;;;;;;4424191;32;20403;-78
2021/06/12 10:28:25;;;;;;;9.02;8.13;;;;;;;;;;4423295;32;20057;-76
2021/06/12 10:30:54;;;;;;;9.82;8.55;;;;;;;;;;4424519;32;20073;-81
2021/06/12 10:33:21;;;;;;;8.88;7.80;;;;;;;;;;4423236;32;20112;-83
2021/06/12 10:35:47;;;;;;;9.07;8.27;;;;;;;;;;4421721;32;20115;-77
2021/06/12 10:38:15;;;;;;;10.05;9.15;;;;;;;;;;4417030;32;20026;-79
2021/06/12 10:40:44;;;;;;;12.35;9.93;;;;;;;;;;4420737;32;20619;-81
2021/06/12 10:43:43;;;;;;;10.70;9.60;;;;;;;;;;4421665;32;20086;-80
2021/06/12 10:46:09;;;;;;;10.40;9.45;;;;;;;;;;4411607;32;20046;-85
2021/06/12 10:52:14;;;;;;;9.63;8.73;;;;;;;;;;4412355;32;20077;-85
2021/06/12 11:16:19;;;;;;;9.93;9.00;;;;;;;;;;4284604;33;20497;-81
2021/06/12 11:19:06;;;;;;;11.63;10.15;;;;;;;;;;4286615;33;20584;-80
2021/06/12 11:22:16;;;;;;;9.90;9.05;;;;;;;;;;4278901;33;20068;-85
2021/06/12 11:24:43;;;;;;;10.43;9.43;;;;;;;;;;4281531;33;20052;-80
2021/06/12 11:27:22;;;;;;;12.73;9.65;;;;;;;;;;4277394;33;20108;-81
2021/06/12 11:30:14;;;;;;;10.52;9.63;;;;;;;;;;4354165;32;20039;-82
2021/06/12 11:32:42;;;;;;;9.80;8.80;;;;;;;;;;4338992;32;20480;-81
2021/06/12 11:35:38;;;;;;;;;;;;;;;;;;;;;
2021/06/12 11:38:19;;;;;;;11.20;10.13;;;;;;;;;;4360207;32;20391;-84
2021/06/12 11:40:53;;;;;;;11.02;9.35;;;;;;;;;;4360839;32;20126;-81
2021/06/12 11:43:45;;;;;;;10.27;9.27;;;;;;;;;;4359935;32;20080;-76
2021/06/12 11:46:29;;;;;;;11.38;9.85;;;;;;;;;;4362339;32;20042;-77
2021/06/12 11:48:56;;;;;;;10.98;9.98;;;;;;;;;;4364142;32;20084;-78
2021/06/12 11:51:28;;;;;;;9.63;8.73;;;;;;;;;;4365838;32;20101;-77
2021/06/12 11:54:09;;;;;;;11.55;10.32;;;;;;;;;;4366057;32;20053;-77
2021/06/12 11:56:55;;;;;;;9.50;8.65;;;;;;;;;;4365646;32;20027;-77
2021/06/12 11:59:22;;;;;;;11.55;8.82;;;;;;;;;;4364120;32;20047;-78
2021/06/12 12:02:01;;;;;;;9.52;8.55;;;;;;;;;;4355373;32;20631;-78
2021/06/12 12:04:41;;;;;;;10.35;9.45;;;;;;;;;;4365248;32;20070;-77
2021/06/12 12:07:09;;;;;;;10.30;9.30;;;;;;;;;;4357402;32;20100;-78
2021/06/12 12:09:47;;;;;;;9.40;8.70;;;;;;;;;;4366409;32;20027;-81
2021/06/12 12:12:17;;;;;;;9.98;9.10;;;;;;;;;;4363531;32;20089;-80
2021/06/12 12:14:44;;;;;;;9.88;8.95;;;;;;;;;;4365582;32;20130;-78
2021/06/12 12:17:29;;;;;;;8.75;7.95;;;;;;;;;;4363729;32;20098;-79
2021/06/12 12:20:01;;;;;;;8.07;7.28;;;;;;;;;;4366224;32;20023;-77
2021/06/12 12:22:49;;;;;;;9.15;8.10;;;;;;;;;;4365764;32;20035;-76
2021/06/12 12:25:29;;;;;;;9.95;8.55;;;;;;;;;;4364909;32;20031;-79
2021/06/12 12:28:07;;;;;;;8.43;7.72;;;;;;;;;;4365692;32;20061;-83
2021/06/12 12:30:33;;;;;;;9.23;8.38;;;;;;;;;;4365024;32;20024;-77
2021/06/12 12:33:09;;;;;;;8.85;8.05;;;;;;;;;;4365640;32;20058;-77
2021/06/12 12:35:35;;;;;;;9.32;8.50;;;;;;;;;;4364595;32;20023;-76
2021/06/12 12:38:11;;;;;;;9.52;8.65;;;;;;;;;;4364155;32;20427;-77
2021/06/12 12:40:38;;;;;;;10.55;9.55;;;;;;;;;;4366170;32;20474;-78
2021/06/12 12:43:05;;;;;;;9.82;8.57;;;;;;;;;;4365608;32;20727;-77
2021/06/12 12:45:32;;;;;;;8.63;7.85;;;;;;;;;;4365244;32;20027;-77
2021/06/12 12:47:58;;;;;;;10.27;8.55;;;;;;;;;;4364966;32;20552;-80
2021/06/12 12:50:24;;;;;;;8.35;7.65;;;;;;;;;;4361920;32;20100;-77
2021/06/12 12:53:07;;;;;;;8.30;7.60;;;;;;;;;;4362056;32;20383;-76
2021/06/12 12:55:34;;;;;;;8.27;7.45;;;;;;;;;;4366100;32;20064;-77
2021/06/12 12:58:00;;;;;;;8.30;7.60;;;;;;;;;;4365872;32;20039;-77
2021/06/12 13:00:28;;;;;;;7.57;6.97;;;;;;;;;;4363454;32;20122;-77
2021/06/12 13:03:08;;;;;;;;;;;;;;;;;;;;;
2021/06/12 13:05:41;;;;;;;8.40;7.60;;;;;;;;;;4365441;32;20046;-82
2021/06/12 13:08:09;;;;;;;9.10;8.15;;;;;;;;;;4363247;32;20104;-82
2021/06/12 13:10:40;;;;;;;9.30;7.85;;;;;;;;;;4364287;32;20066;-82
2021/06/12 13:13:08;;;;;;;12.63;7.40;;;;;;;;;;4359883;32;20062;-82
2021/06/12 13:15:34;;;;;;;8.00;7.30;;;;;;;;;;4365277;32;20104;-81
2021/06/12 13:18:08;;;;;;;8.43;7.45;;;;;;;;;;4365783;32;20057;-81
2021/06/12 13:20:34;;;;;;;7.53;6.80;;;;;;;;;;4362504;32;20069;-81
2021/06/12 13:23:01;;;;;;;7.93;6.93;;;;;;;;;;4365368;32;20167;-81
2021/06/12 13:25:27;;;;;;;7.07;6.47;;;;;;;;;;4364159;32;20110;-81
2021/06/12 13:28:04;;;;;;;8.07;7.37;;;;;;;;;;4363891;32;20050;-81
2021/06/12 13:30:32;;;;;;;8.07;6.68;;;;;;;;;;4365064;32;20478;-82
2021/06/12 13:33:00;;;;;;;7.32;6.43;;;;;;;;;;4362724;32;20403;-82
2021/06/12 13:35:31;;;;;;;7.40;6.70;;;;;;;;;;4363593;32;20075;-84
2021/06/12 13:38:11;;;;;;;7.45;6.82;;;;;;;;;;4359201;32;20042;-84
2021/06/12 13:40:39;;;;;;;11.25;7.65;;;;;;;;;;4372978;32;20371;-81
2021/06/12 13:43:15;;;;;;;8.02;7.30;;;;;;;;;;4361834;32;20039;-81
2021/06/12 13:45:42;;;;;;;6.97;6.37;;;;;;;;;;4363218;32;20047;-76
2021/06/12 13:48:18;;;;;;;7.10;6.50;;;;;;;;;;4366114;32;20366;-89
2021/06/12 13:51:05;;;;;;;7.20;6.45;;;;;;;;;;4362383;32;20042;-82
2021/06/12 13:56:32;;;;;;;9.77;7.90;;;;;;;;;;4354755;32;20050;-84
2021/06/12 13:59:07;;;;;;;6.47;5.87;;;;;;;;;;4362414;32;20035;-87
2021/06/12 14:21:51;;;;;;;6.03;5.53;;;;;;;;;;4263164;33;20067;-85
2021/06/12 14:37:10;;;;;;;5.57;5.07;;;;;;;;;;4258319;33;20083;-86
2021/06/12 14:39:46;;;;;;;;;;;;;;;;;;;;;
2021/06/12 14:42:16;;;;;;;5.05;4.60;;;;;;;;;;4288083;33;20082;-84
2021/06/12 14:45:10;;;;;;;;;;;;;;;;;;;;;
2021/06/12 15:06:43;;;;;;;6.05;4.57;;;;;;;;;;4250568;33;20191;-84
2021/06/12 15:09:22;;;;;;;;;;;;;;;;;;;;;
2021/06/12 15:11:48;;;;;;;4.37;3.97;;;;;;;;;;4354712;32;20051;-77
2021/06/12 15:14:15;;;;;;;4.70;4.28;;;;;;;;;;4363863;32;20140;-79
2021/06/12 15:16:41;;;;;;;4.97;4.20;;;;;;;;;;4361976;32;20027;-78
2021/06/12 15:19:08;;;;;;;7.10;4.65;;;;;;;;;;4362517;32;20066;-78
2021/06/12 15:21:34;;;;;;;5.25;4.80;;;;;;;;;;4363549;32;20027;-80
2021/06/12 15:24:00;;;;;;;5.75;4.45;;;;;;;;;;4361416;32;20363;-79
2021/06/12 15:26:27;;;;;;;5.55;5.05;;;;;;;;;;4363523;32;20061;-78
2021/06/12 15:28:53;;;;;;;7.78;5.95;;;;;;;;;;4363472;32;20081;-78
2021/06/12 15:31:19;;;;;;;8.85;7.95;;;;;;;;;;4363396;32;20027;-78
2021/06/12 15:33:45;;;;;;;7.50;6.80;;;;;;;;;;4363132;32;20023;-78
2021/06/12 15:36:12;;;;;;;7.32;6.62;;;;;;;;;;4362168;32;20072;-77
2021/06/12 15:38:38;;;;;;;5.90;5.40;;;;;;;;;;4363345;32;20027;-78
2021/06/12 15:41:04;;;;;;;5.65;5.25;;;;;;;;;;4363753;32;20077;-79
2021/06/12 15:43:31;;;;;;;5.28;4.87;;;;;;;;;;4362420;32;20065;-77
2021/06/12 15:45:57;;;;;;;7.03;5.75;;;;;;;;;;4363253;32;20471;-78
2021/06/12 15:48:23;;;;;;;7.30;5.95;;;;;;;;;;4362179;32;20019;-78
2021/06/12 15:50:53;;;;;;;6.53;5.93;;;;;;;;;;4362949;32;20027;-78
2021/06/12 15:53:19;;;;;;;6.40;5.90;;;;;;;;;;4361760;32;20066;-78
2021/06/12 15:55:45;;;;;;;6.45;5.87;;;;;;;;;;4362924;32;20066;-78
2021/06/12 15:58:12;;;;;;;9.60;6.10;;;;;;;;;;4356062;32;20070;-78
2021/06/12 16:00:39;;;;;;;6.28;5.68;;;;;;;;;;4347887;32;20061;-78
2021/06/12 16:03:06;;;;;;;6.22;5.62;;;;;;;;;;4349695;32;20153;-78
2021/06/12 16:05:32;;;;;;;5.90;5.37;;;;;;;;;;4349574;32;20055;-77